createdAt,value
2023-01-02T00:00:29.299Z,84.01
2023-01-02T00:01:28.259Z,83.91
2023-01-02T00:02:28.292Z,83.91
2023-01-02T00:03:28.410Z,83.91
2023-01-02T00:04:28.245Z,83.91
2023-01-02T00:05:28.213Z,83.60
2023-01-02T00:06:28.243Z,83.40
2023-01-02T00:07:28.183Z,83.40
2023-01-02T00:08:28.168Z,83.40
2023-01-02T00:09:28.156Z,83.60
2023-01-02T00:10:28.168Z,83.60
2023-01-02T00:11:28.141Z,83.50
2023-01-02T00:12:28.190Z,83.50
2023-01-02T00:13:28.107Z,83.50
2023-01-02T00:14:28.119Z,83.60
2023-01-02T00:15:28.119Z,83.50
2023-01-02T00:16:28.132Z,83.60
2023-01-02T00:17:28.066Z,83.91
2023-01-02T00:18:28.097Z,84.01
2023-01-02T00:19:28.041Z,83.70
2023-01-02T00:20:28.075Z,83.60
2023-01-02T00:21:28.044Z,83.50
2023-01-02T00:22:28.020Z,83.50
2023-01-02T00:23:28.009Z,83.40
2023-01-02T00:24:27.986Z,83.60
2023-01-02T00:25:27.979Z,83.50
2023-01-02T00:26:27.990Z,83.20
2023-01-02T00:27:27.952Z,83.15
2023-01-02T00:28:27.980Z,83.26
2023-01-02T00:29:27.921Z,83.36
2023-01-02T00:30:31.103Z,83.46
2023-01-02T00:31:29.011Z,83.56
2023-01-02T00:32:27.903Z,83.56
2023-01-02T00:33:27.892Z,83.67
2023-01-02T00:34:27.917Z,83.56
2023-01-02T00:35:27.872Z,83.56
2023-01-02T00:36:27.873Z,83.56
2023-01-02T00:37:27.850Z,83.56
2023-01-02T00:38:27.839Z,83.67
2023-01-02T00:39:29.530Z,83.67
2023-01-02T00:40:27.835Z,83.76
2023-01-02T00:41:27.815Z,83.67
2023-01-02T00:42:27.796Z,83.76
2023-01-02T00:43:27.785Z,83.67
2023-01-02T00:44:27.762Z,83.56
2023-01-02T00:45:27.755Z,83.56
2023-01-02T00:46:27.811Z,83.56
2023-01-02T00:47:27.743Z,83.67
2023-01-02T00:48:27.721Z,83.76
2023-01-02T00:49:27.702Z,83.56
2023-01-02T00:50:27.695Z,83.56
2023-01-02T00:51:27.677Z,83.76
2023-01-02T00:52:27.695Z,83.87
2023-01-02T00:53:27.646Z,84.01
2023-01-02T00:54:27.649Z,84.01
2023-01-02T00:55:27.628Z,84.31
2023-01-02T00:56:27.664Z,84.52
2023-01-02T00:57:27.607Z,84.72
2023-01-02T00:58:27.599Z,84.72
2023-01-02T00:59:27.581Z,84.62
2023-01-02T01:00:27.598Z,84.52
2023-01-02T01:01:27.632Z,84.52
2023-01-02T01:02:27.647Z,84.72
2023-01-02T01:03:27.540Z,84.82
2023-01-02T01:04:27.575Z,85.03
2023-01-02T01:05:27.519Z,85.13
2023-01-02T01:06:27.510Z,85.33
2023-01-02T01:07:27.495Z,85.53
2023-01-02T01:08:27.482Z,85.84
2023-01-02T01:09:27.503Z,86.15
2023-01-02T01:10:27.470Z,86.65
2023-01-02T01:11:27.454Z,87.16
2023-01-02T01:12:27.458Z,87.57
2023-01-02T01:13:27.440Z,87.77
2023-01-02T01:14:27.516Z,87.87
2023-01-02T01:15:27.434Z,88.18
2023-01-02T01:16:27.438Z,88.48
2023-01-02T01:17:27.375Z,88.59
2023-01-02T01:18:27.398Z,88.83
2023-01-02T01:19:27.399Z,89.03
2023-01-02T01:20:27.376Z,89.14
2023-01-02T01:21:27.358Z,89.34
2023-01-02T01:22:27.330Z,89.44
2023-01-02T01:23:27.316Z,89.75
2023-01-02T01:24:27.341Z,89.85
2023-01-02T01:25:27.297Z,90.05
2023-01-02T01:26:27.275Z,90.25
2023-01-02T01:27:27.265Z,90.36
2023-01-02T01:28:27.276Z,90.46
2023-01-02T01:29:27.251Z,90.66
2023-01-02T01:30:27.249Z,90.86
2023-01-02T01:31:27.307Z,90.91
2023-01-02T01:32:27.236Z,91.11
2023-01-02T01:33:27.199Z,91.31
2023-01-02T01:34:27.197Z,91.31
2023-01-02T01:35:27.210Z,91.42
2023-01-02T01:36:27.175Z,91.42
2023-01-02T01:37:27.163Z,91.52
2023-01-02T01:38:27.149Z,91.52
2023-01-02T01:39:27.141Z,91.72
2023-01-02T01:40:27.125Z,91.93
2023-01-02T01:41:27.129Z,92.03
2023-01-02T01:42:27.174Z,92.18
2023-01-02T01:43:27.110Z,92.38
2023-01-02T01:44:27.080Z,92.38
2023-01-02T01:45:27.112Z,92.48
2023-01-02T01:46:27.058Z,92.48
2023-01-02T01:47:27.063Z,92.58
2023-01-02T01:48:27.064Z,92.68
2023-01-02T01:49:27.019Z,92.79
2023-01-02T01:50:27.028Z,92.89
2023-01-02T01:51:26.997Z,92.99
2023-01-02T01:52:27.024Z,92.99
2023-01-02T01:53:26.973Z,92.99
2023-01-02T01:54:26.988Z,93.09
2023-01-02T01:55:26.962Z,93.19
2023-01-02T01:56:26.946Z,93.19
2023-01-02T01:57:26.924Z,93.33
2023-01-02T01:58:26.915Z,93.44
2023-01-02T01:59:26.931Z,93.44
2023-01-02T02:00:26.954Z,93.44
2023-01-02T02:01:26.998Z,93.44
2023-01-02T02:02:26.999Z,93.44
2023-01-02T02:03:26.880Z,93.33
2023-01-02T02:04:26.880Z,93.33
2023-01-02T02:05:26.866Z,93.33
2023-01-02T02:06:26.868Z,93.33
2023-01-02T02:07:26.868Z,93.33
2023-01-02T02:08:26.816Z,93.33
2023-01-02T02:09:26.825Z,93.33
2023-01-02T02:10:26.802Z,93.13
2023-01-02T02:11:26.780Z,93.13
2023-01-02T02:12:28.336Z,93.13
2023-01-02T02:13:26.786Z,93.03
2023-01-02T02:14:26.745Z,92.93
2023-01-02T02:15:26.752Z,92.72
2023-01-02T02:16:26.800Z,92.72
2023-01-02T02:17:26.717Z,92.72
2023-01-02T02:18:26.788Z,92.63
2023-01-02T02:19:26.719Z,92.52
2023-01-02T02:20:26.679Z,92.48
2023-01-02T02:21:26.715Z,92.38
2023-01-02T02:22:26.651Z,92.27
2023-01-02T02:23:26.650Z,92.27
2023-01-02T02:24:26.638Z,92.27
2023-01-02T02:25:26.623Z,92.27
2023-01-02T02:26:26.605Z,92.27
2023-01-02T02:27:26.641Z,92.07
2023-01-02T02:28:26.613Z,91.97
2023-01-02T02:29:26.573Z,91.97
2023-01-02T02:30:26.572Z,91.87
2023-01-02T02:31:26.635Z,91.97
2023-01-02T02:32:26.559Z,91.77
2023-01-02T02:33:26.544Z,91.66
2023-01-02T02:34:26.538Z,91.66
2023-01-02T02:35:26.512Z,91.66
2023-01-02T02:36:26.508Z,91.77
2023-01-02T02:37:26.524Z,91.87
2023-01-02T02:38:26.475Z,91.97
2023-01-02T02:39:27.435Z,92.07
2023-01-02T02:40:26.461Z,92.27
2023-01-02T02:41:26.443Z,92.38
2023-01-02T02:42:26.439Z,92.48
2023-01-02T02:43:26.462Z,92.58
2023-01-02T02:44:26.405Z,92.58
2023-01-02T02:45:26.397Z,92.68
2023-01-02T02:46:26.382Z,92.79
2023-01-02T02:47:26.375Z,92.79
2023-01-02T02:48:26.392Z,92.79
2023-01-02T02:49:26.388Z,92.79
2023-01-02T02:50:26.374Z,92.89
2023-01-02T02:51:26.330Z,92.93
2023-01-02T02:52:26.319Z,92.93
2023-01-02T02:53:26.354Z,93.03
2023-01-02T02:54:26.299Z,93.03
2023-01-02T02:55:26.279Z,93.03
2023-01-02T02:56:26.311Z,93.03
2023-01-02T02:57:26.285Z,92.93
2023-01-02T02:58:26.274Z,92.93
2023-01-02T02:59:26.240Z,92.72
2023-01-02T03:00:26.229Z,92.72
2023-01-02T03:01:30.201Z,92.72
2023-01-02T03:02:26.407Z,92.72
2023-01-02T03:03:26.214Z,92.72
2023-01-02T03:04:26.182Z,92.83
2023-01-02T03:05:26.185Z,92.83
2023-01-02T03:06:26.166Z,92.83
2023-01-02T03:07:26.156Z,92.83
2023-01-02T03:08:31.109Z,92.79
2023-01-02T03:09:27.132Z,92.89
2023-01-02T03:10:26.125Z,92.89
2023-01-02T03:11:26.135Z,92.89
2023-01-02T03:12:26.106Z,92.68
2023-01-02T03:13:26.115Z,92.68
2023-01-02T03:14:26.074Z,92.68
2023-01-02T03:15:26.067Z,92.58
2023-01-02T03:16:26.073Z,92.58
2023-01-02T03:17:26.039Z,92.58
2023-01-02T03:18:26.023Z,92.48
2023-01-02T03:19:26.037Z,92.38
2023-01-02T03:20:25.998Z,92.27
2023-01-02T03:21:31.023Z,92.27
2023-01-02T03:22:26.989Z,92.38
2023-01-02T03:23:25.968Z,92.48
2023-01-02T03:24:25.997Z,92.48
2023-01-02T03:25:25.959Z,92.48
2023-01-02T03:26:25.949Z,92.48
2023-01-02T03:27:25.931Z,92.38
2023-01-02T03:28:25.908Z,92.48
2023-01-02T03:29:25.909Z,92.48
2023-01-02T03:30:25.966Z,92.38
2023-01-02T03:31:25.870Z,92.48
2023-01-02T03:32:25.869Z,92.58
2023-01-02T03:33:25.849Z,92.58
2023-01-02T03:34:25.860Z,92.68
2023-01-02T03:35:25.880Z,92.79
2023-01-02T03:36:25.831Z,92.89
2023-01-02T03:37:25.806Z,92.99
2023-01-02T03:38:25.801Z,93.09
2023-01-02T03:39:25.782Z,93.13
2023-01-02T03:40:25.786Z,93.24
2023-01-02T03:41:25.788Z,93.33
2023-01-02T03:42:25.768Z,93.33
2023-01-02T03:43:25.754Z,93.44
2023-01-02T03:44:25.747Z,93.54
2023-01-02T03:45:25.729Z,93.64
2023-01-02T03:46:25.745Z,93.74
2023-01-02T03:47:25.726Z,93.85
2023-01-02T03:48:25.705Z,93.95
2023-01-02T03:49:25.672Z,94.05
2023-01-02T03:50:25.665Z,94.15
2023-01-02T03:51:25.656Z,94.26
2023-01-02T03:52:26.257Z,94.26
2023-01-02T03:53:25.647Z,94.35
2023-01-02T03:54:25.655Z,94.35
2023-01-02T03:55:25.650Z,94.46
2023-01-02T03:56:25.602Z,94.46
2023-01-02T03:57:25.593Z,94.56
2023-01-02T03:58:25.586Z,94.56
2023-01-02T03:59:25.568Z,94.71
2023-01-02T04:00:25.565Z,94.71
2023-01-02T04:01:25.698Z,94.71
2023-01-02T04:02:25.687Z,94.71
2023-01-02T04:03:25.565Z,94.81
2023-01-02T04:04:25.558Z,94.81
2023-01-02T04:05:25.503Z,94.81
2023-01-02T04:06:25.490Z,94.71
2023-01-02T04:07:25.477Z,94.71
2023-01-02T04:08:25.485Z,94.60
2023-01-02T04:09:25.461Z,94.60
2023-01-02T04:10:25.491Z,94.50
2023-01-02T04:11:25.445Z,94.30
2023-01-02T04:12:25.425Z,94.30
2023-01-02T04:13:25.403Z,94.30
2023-01-02T04:14:25.418Z,94.20
2023-01-02T04:15:25.496Z,94.20
2023-01-02T04:16:25.412Z,94.20
2023-01-02T04:17:25.386Z,94.30
2023-01-02T04:18:25.435Z,94.40
2023-01-02T04:19:25.359Z,94.40
2023-01-02T04:20:25.332Z,94.40
2023-01-02T04:21:25.321Z,94.40
2023-01-02T04:22:25.316Z,94.40
2023-01-02T04:23:25.347Z,94.40
2023-01-02T04:24:25.309Z,94.40
2023-01-02T04:25:25.285Z,94.30
2023-01-02T04:26:25.268Z,94.30
2023-01-02T04:27:25.293Z,94.20
2023-01-02T04:28:25.282Z,94.09
2023-01-02T04:29:25.247Z,94.09
2023-01-02T04:30:25.223Z,93.99
2023-01-02T04:31:25.319Z,93.89
2023-01-02T04:32:25.227Z,93.79
2023-01-02T04:33:25.195Z,93.59
2023-01-02T04:34:25.210Z,93.44
2023-01-02T04:35:25.174Z,93.33
2023-01-02T04:36:25.169Z,93.13
2023-01-02T04:37:25.151Z,92.93
2023-01-02T04:38:25.170Z,92.52
2023-01-02T04:39:25.117Z,92.32
2023-01-02T04:40:25.115Z,92.22
2023-01-02T04:41:25.121Z,92.11
2023-01-02T04:42:25.104Z,92.01
2023-01-02T04:43:25.090Z,91.56
2023-01-02T04:44:25.060Z,91.36
2023-01-02T04:45:25.062Z,91.36
2023-01-02T04:46:25.195Z,91.36
2023-01-02T04:47:25.096Z,91.26
2023-01-02T04:48:25.106Z,91.16
2023-01-02T04:49:25.050Z,91.05
2023-01-02T04:50:25.009Z,90.75
2023-01-02T04:51:24.995Z,90.34
2023-01-02T04:52:24.983Z,90.14
2023-01-02T04:53:24.998Z,90.14
2023-01-02T04:54:24.991Z,89.94
2023-01-02T04:55:24.957Z,89.83
2023-01-02T04:56:24.935Z,89.73
2023-01-02T04:57:24.923Z,89.53
2023-01-02T04:58:24.972Z,89.53
2023-01-02T04:59:24.940Z,89.42
2023-01-02T05:00:24.915Z,89.42
2023-01-02T05:01:24.976Z,89.32
2023-01-02T05:02:24.907Z,89.32
2023-01-02T05:03:24.898Z,89.32
2023-01-02T05:04:24.858Z,88.92
2023-01-02T05:05:24.895Z,89.01
2023-01-02T05:06:24.823Z,89.22
2023-01-02T05:07:24.875Z,89.12
2023-01-02T05:08:24.801Z,88.92
2023-01-02T05:09:24.802Z,88.92
2023-01-02T05:10:24.794Z,89.01
2023-01-02T05:11:24.805Z,88.92
2023-01-02T05:12:24.800Z,88.92
2023-01-02T05:13:24.766Z,89.12
2023-01-02T05:14:24.726Z,89.12
2023-01-02T05:15:24.733Z,89.12
2023-01-02T05:16:24.824Z,89.18
2023-01-02T05:17:24.733Z,89.07
2023-01-02T05:18:24.711Z,89.07
2023-01-02T05:19:24.691Z,88.98
2023-01-02T05:20:24.660Z,88.98
2023-01-02T05:21:24.659Z,88.87
2023-01-02T05:22:24.646Z,88.67
2023-01-02T05:23:24.676Z,88.67
2023-01-02T05:24:24.610Z,88.87
2023-01-02T05:25:24.626Z,88.87
2023-01-02T05:26:24.595Z,88.77
2023-01-02T05:27:24.594Z,88.77
2023-01-02T05:28:24.582Z,88.67
2023-01-02T05:29:24.588Z,88.46
2023-01-02T05:30:24.552Z,88.36
2023-01-02T05:31:24.619Z,88.26
2023-01-02T05:32:24.524Z,88.36
2023-01-02T05:33:24.527Z,88.36
2023-01-02T05:34:24.555Z,88.36
2023-01-02T05:35:30.181Z,88.36
2023-01-02T05:36:25.486Z,88.32
2023-01-02T05:37:24.465Z,88.32
2023-01-02T05:38:24.465Z,88.32
2023-01-02T05:39:24.459Z,88.42
2023-01-02T05:40:24.469Z,88.53
2023-01-02T05:41:24.455Z,88.63
2023-01-02T05:42:24.440Z,88.73
2023-01-02T05:43:24.470Z,88.83
2023-01-02T05:44:24.421Z,88.73
2023-01-02T05:45:24.402Z,88.63
2023-01-02T05:46:24.405Z,88.83
2023-01-02T05:47:24.371Z,88.83
2023-01-02T05:48:24.364Z,88.93
2023-01-02T05:49:24.372Z,89.07
2023-01-02T05:50:24.344Z,89.03
2023-01-02T05:51:24.324Z,89.07
2023-01-02T05:52:24.323Z,89.07
2023-01-02T05:53:24.361Z,89.07
2023-01-02T05:54:24.312Z,89.14
2023-01-02T05:55:24.278Z,89.34
2023-01-02T05:56:24.281Z,89.59
2023-01-02T05:57:25.383Z,89.69
2023-01-02T05:58:24.254Z,89.89
2023-01-02T05:59:24.224Z,89.99
2023-01-02T06:00:24.221Z,90.20
2023-01-02T06:01:24.308Z,90.20
2023-01-02T06:02:24.305Z,90.09
2023-01-02T06:03:24.266Z,90.30
2023-01-02T06:04:24.175Z,90.40
2023-01-02T06:05:24.176Z,90.50
2023-01-02T06:06:24.158Z,90.60
2023-01-02T06:07:24.172Z,90.81
2023-01-02T06:08:24.193Z,91.11
2023-01-02T06:09:24.147Z,91.22
2023-01-02T06:10:24.136Z,91.31
2023-01-02T06:11:24.094Z,91.42
2023-01-02T06:12:24.152Z,91.52
2023-01-02T06:13:24.075Z,91.66
2023-01-02T06:14:24.154Z,91.56
2023-01-02T06:15:24.053Z,91.66
2023-01-02T06:16:24.054Z,91.77
2023-01-02T06:17:24.048Z,91.87
2023-01-02T06:18:24.021Z,91.87
2023-01-02T06:19:24.041Z,91.97
2023-01-02T06:20:24.015Z,92.07
2023-01-02T06:21:23.996Z,92.18
2023-01-02T06:22:24.019Z,92.18
2023-01-02T06:23:23.964Z,92.27
2023-01-02T06:24:23.976Z,92.38
2023-01-02T06:25:23.953Z,92.27
2023-01-02T06:26:23.945Z,92.27
2023-01-02T06:27:23.910Z,92.38
2023-01-02T06:28:23.902Z,92.48
2023-01-02T06:29:23.898Z,92.48
2023-01-02T06:30:23.883Z,92.58
2023-01-02T06:31:23.932Z,92.68
2023-01-02T06:32:23.881Z,92.79
2023-01-02T06:33:23.860Z,92.79
2023-01-02T06:34:23.848Z,92.89
2023-01-02T06:35:23.830Z,92.89
2023-01-02T06:36:24.760Z,92.89
2023-01-02T06:37:23.847Z,92.99
2023-01-02T06:38:23.820Z,93.03
2023-01-02T06:39:23.783Z,93.03
2023-01-02T06:40:23.762Z,93.13
2023-01-02T06:41:23.775Z,93.24
2023-01-02T06:42:23.746Z,93.33
2023-01-02T06:43:23.782Z,93.33
2023-01-02T06:44:23.746Z,93.33
2023-01-02T06:45:23.758Z,93.44
2023-01-02T06:46:23.765Z,93.44
2023-01-02T06:47:23.704Z,93.54
2023-01-02T06:48:23.677Z,93.54
2023-01-02T06:49:23.688Z,93.64
2023-01-02T06:50:26.320Z,93.74
2023-01-02T06:51:24.681Z,93.85
2023-01-02T06:52:23.642Z,93.95
2023-01-02T06:53:23.631Z,94.05
2023-01-02T06:54:23.616Z,94.05
2023-01-02T06:55:23.614Z,94.05
2023-01-02T06:56:23.649Z,94.05
2023-01-02T06:57:23.598Z,94.15
2023-01-02T06:58:25.035Z,94.15
2023-01-02T06:59:23.562Z,94.15
2023-01-02T07:00:23.571Z,94.15
2023-01-02T07:01:23.738Z,94.26
2023-01-02T07:02:23.647Z,94.15
2023-01-02T07:03:23.524Z,94.26
2023-01-02T07:04:23.502Z,94.26
2023-01-02T07:05:24.837Z,94.26
2023-01-02T07:06:23.522Z,94.26
2023-01-02T07:07:23.483Z,94.26
2023-01-02T07:08:23.462Z,94.35
2023-01-02T07:09:23.449Z,94.26
2023-01-02T07:10:23.434Z,94.26
2023-01-02T07:11:23.432Z,94.26
2023-01-02T07:12:23.442Z,94.35
2023-01-02T07:13:23.399Z,94.35
2023-01-02T07:14:23.403Z,94.35
2023-01-02T07:15:23.377Z,94.35
2023-01-02T07:16:23.403Z,94.35
2023-01-02T07:17:23.406Z,94.26
2023-01-02T07:18:23.348Z,94.26
2023-01-02T07:19:23.345Z,94.26
2023-01-02T07:20:23.325Z,94.15
2023-01-02T07:21:23.337Z,94.15
2023-01-02T07:22:23.307Z,94.15
2023-01-02T07:23:23.317Z,94.05
2023-01-02T07:24:23.313Z,94.15
2023-01-02T07:25:23.270Z,94.15
2023-01-02T07:26:23.293Z,94.26
2023-01-02T07:27:23.249Z,94.35
2023-01-02T07:28:23.227Z,94.46
2023-01-02T07:29:23.243Z,94.35
2023-01-02T07:30:23.212Z,94.35
2023-01-02T07:31:23.267Z,94.46
2023-01-02T07:32:27.290Z,94.46
2023-01-02T07:33:23.195Z,94.50
2023-01-02T07:34:23.162Z,94.50
2023-01-02T07:35:23.157Z,94.60
2023-01-02T07:36:23.144Z,94.60
2023-01-02T07:37:23.158Z,94.60
2023-01-02T07:38:23.121Z,94.60
2023-01-02T07:39:23.143Z,94.71
2023-01-02T07:40:27.259Z,94.71
2023-01-02T07:41:24.094Z,94.81
2023-01-02T07:42:23.069Z,94.81
2023-01-02T07:43:23.082Z,94.91
2023-01-02T07:44:23.041Z,94.91
2023-01-02T07:45:23.079Z,95.01
2023-01-02T07:46:23.070Z,95.01
2023-01-02T07:47:23.052Z,94.91
2023-01-02T07:48:23.054Z,94.91
2023-01-02T07:49:22.998Z,94.91
2023-01-02T07:50:22.998Z,95.01
2023-01-02T07:51:27.319Z,95.12
2023-01-02T07:52:22.969Z,95.21
2023-01-02T07:53:22.966Z,95.32
2023-01-02T07:54:22.973Z,95.52
2023-01-02T07:55:22.955Z,95.52
2023-01-02T07:56:22.926Z,95.62
2023-01-02T07:57:22.917Z,95.73
2023-01-02T07:58:22.906Z,95.83
2023-01-02T07:59:24.365Z,95.83
2023-01-02T08:00:22.925Z,95.93
2023-01-02T08:01:22.977Z,96.03
2023-01-02T08:02:22.938Z,96.08
2023-01-02T08:03:22.868Z,96.18
2023-01-02T08:04:22.900Z,96.28
2023-01-02T08:05:22.844Z,96.38
2023-01-02T08:06:22.816Z,96.48
2023-01-02T08:07:22.798Z,96.59
2023-01-02T08:08:22.802Z,96.59
2023-01-02T08:09:22.805Z,96.69
2023-01-02T08:10:22.819Z,96.69
2023-01-02T08:11:22.813Z,96.79
2023-01-02T08:12:22.752Z,96.89
2023-01-02T08:13:22.738Z,97.00
2023-01-02T08:14:23.752Z,97.09
2023-01-02T08:15:22.749Z,97.09
2023-01-02T08:16:22.757Z,97.20
2023-01-02T08:17:22.707Z,97.30
2023-01-02T08:18:22.730Z,97.40
2023-01-02T08:19:22.698Z,97.50
2023-01-02T08:20:22.659Z,97.61
2023-01-02T08:21:22.659Z,97.61
2023-01-02T08:22:22.650Z,97.71
2023-01-02T08:23:22.653Z,97.81
2023-01-02T08:24:22.669Z,97.91
2023-01-02T08:25:22.622Z,98.02
2023-01-02T08:26:22.592Z,98.11
2023-01-02T08:27:22.591Z,98.22
2023-01-02T08:28:22.602Z,98.32
2023-01-02T08:29:22.572Z,98.36
2023-01-02T08:30:22.591Z,98.47
2023-01-02T08:31:22.546Z,98.57
2023-01-02T08:32:22.520Z,98.77
2023-01-02T08:33:22.535Z,98.88
2023-01-02T08:34:22.517Z,98.88
2023-01-02T08:35:37.491Z,99.08
2023-01-02T08:36:23.508Z,99.29
2023-01-02T08:37:22.466Z,99.49
2023-01-02T08:38:22.470Z,99.84
2023-01-02T08:39:22.444Z,99.99
2023-01-02T08:40:22.434Z,99.99
2023-01-02T08:41:22.435Z,99.99
2023-01-02T08:42:22.400Z,99.99
2023-01-02T08:43:22.415Z,99.99
2023-01-02T08:44:22.418Z,99.99
2023-01-02T08:45:22.372Z,99.99
2023-01-02T08:46:22.451Z,99.99
2023-01-02T08:47:22.356Z,99.99
2023-01-02T08:48:22.372Z,99.99
2023-01-02T08:49:22.443Z,99.99
2023-01-02T08:50:22.341Z,99.99
2023-01-02T08:51:22.319Z,99.99
2023-01-02T08:52:22.337Z,99.99
2023-01-02T08:53:22.284Z,99.99
2023-01-02T08:54:22.268Z,99.99
2023-01-02T08:55:22.304Z,99.99
2023-01-02T08:56:22.268Z,99.99
2023-01-02T08:57:22.229Z,99.99
2023-01-02T08:58:22.239Z,99.99
2023-01-02T08:59:22.223Z,99.99
2023-01-02T09:00:22.208Z,99.99
2023-01-02T09:01:22.330Z,99.99
2023-01-02T09:02:22.411Z,99.99
2023-01-02T09:03:22.220Z,99.99
2023-01-02T09:04:22.170Z,99.99
2023-01-02T09:05:22.218Z,99.99
2023-01-02T09:06:22.659Z,99.99
2023-01-02T09:07:22.142Z,99.99
2023-01-02T09:08:22.110Z,99.99
2023-01-02T09:09:22.100Z,99.99
2023-01-02T09:10:22.095Z,99.99
2023-01-02T09:11:22.085Z,99.99
2023-01-02T09:12:22.151Z,99.99
2023-01-02T09:13:22.051Z,99.99
2023-01-02T09:14:22.063Z,99.99
2023-01-02T09:15:22.083Z,99.99
2023-01-02T09:16:22.096Z,99.99
2023-01-02T09:17:22.012Z,99.99
2023-01-02T09:18:27.362Z,99.99
2023-01-02T09:19:22.983Z,99.99
2023-01-02T09:20:21.987Z,99.99
2023-01-02T09:21:22.005Z,99.99
2023-01-02T09:22:22.120Z,99.99
2023-01-02T09:23:21.937Z,99.99
2023-01-02T09:24:21.932Z,99.99
2023-01-02T09:25:24.360Z,99.99
2023-01-02T09:26:21.904Z,99.99
2023-01-02T09:27:21.889Z,99.99
2023-01-02T09:28:21.915Z,99.99
2023-01-02T09:29:21.911Z,99.99
2023-01-02T09:30:21.869Z,99.99
2023-01-02T09:31:21.986Z,99.99
2023-01-02T09:32:21.862Z,99.99
2023-01-02T09:33:21.840Z,99.99
2023-01-02T09:34:21.821Z,99.99
2023-01-02T09:35:21.803Z,99.99
2023-01-02T09:36:21.812Z,99.99
2023-01-02T09:37:21.824Z,99.99
2023-01-02T09:38:21.780Z,99.99
2023-01-02T09:39:25.601Z,99.99
2023-01-02T09:40:22.751Z,99.99
2023-01-02T09:41:21.756Z,99.99
2023-01-02T09:42:21.735Z,99.99
2023-01-02T09:43:21.735Z,99.99
2023-01-02T09:44:21.711Z,99.99
2023-01-02T09:45:21.725Z,99.99
2023-01-02T09:46:21.708Z,99.99
2023-01-02T09:47:21.669Z,99.99
2023-01-02T09:48:21.664Z,99.99
2023-01-02T09:49:22.640Z,99.99
2023-01-02T09:50:21.692Z,99.99
2023-01-02T09:51:21.640Z,99.99
2023-01-02T09:52:21.614Z,99.99
2023-01-02T09:53:21.625Z,99.99
2023-01-02T09:54:21.589Z,99.99
2023-01-02T09:55:21.585Z,99.99
2023-01-02T09:56:23.026Z,99.99
2023-01-02T09:57:21.584Z,99.99
2023-01-02T09:58:21.553Z,99.99
2023-01-02T09:59:21.559Z,99.99
2023-01-02T10:00:21.587Z,99.99
2023-01-02T10:01:21.542Z,99.99
2023-01-02T10:02:21.722Z,99.99
2023-01-02T10:03:21.614Z,99.99
2023-01-02T10:04:21.565Z,99.99
2023-01-02T10:05:21.475Z,99.99
2023-01-02T10:06:21.513Z,99.99
2023-01-02T10:07:21.487Z,99.99
2023-01-02T10:08:25.061Z,99.99
2023-01-02T10:09:22.413Z,99.99
2023-01-02T10:10:21.409Z,99.96
2023-01-02T10:11:21.412Z,99.96
2023-01-02T10:12:21.433Z,99.96
2023-01-02T10:13:21.394Z,99.96
2023-01-02T10:14:23.193Z,99.99
2023-01-02T10:15:21.346Z,99.96
2023-01-02T10:16:22.399Z,99.96
2023-01-02T10:17:21.326Z,99.99
2023-01-02T10:18:21.323Z,99.99
2023-01-02T10:19:21.321Z,99.99
2023-01-02T10:20:24.189Z,99.99
2023-01-02T10:21:21.285Z,99.99
2023-01-02T10:22:21.300Z,99.99
2023-01-02T10:23:21.263Z,99.99
2023-01-02T10:24:21.263Z,99.99
2023-01-02T10:25:21.238Z,99.99
2023-01-02T10:26:21.258Z,99.99
2023-01-02T10:27:21.235Z,99.99
2023-01-02T10:28:21.207Z,99.99
2023-01-02T10:29:21.188Z,99.99
2023-01-02T10:30:21.218Z,99.99
2023-01-02T10:31:22.228Z,99.99
2023-01-02T10:32:21.348Z,99.99
2023-01-02T10:33:21.161Z,99.99
2023-01-02T10:34:21.147Z,99.99
2023-01-02T10:35:21.151Z,99.99
2023-01-02T10:36:21.124Z,99.99
2023-01-02T10:37:21.113Z,99.99
2023-01-02T10:38:21.125Z,99.99
2023-01-02T10:39:21.080Z,99.99
2023-01-02T10:40:21.173Z,99.99
2023-01-02T10:41:21.075Z,99.99
2023-01-02T10:42:21.056Z,99.99
2023-01-02T10:43:21.057Z,99.99
2023-01-02T10:44:21.060Z,99.99
2023-01-02T10:45:21.035Z,99.99
2023-01-02T10:46:21.078Z,99.99
2023-01-02T10:47:21.028Z,99.99
2023-01-02T10:48:21.008Z,99.96
2023-01-02T10:49:21.006Z,99.86
2023-01-02T10:50:21.007Z,99.76
2023-01-02T10:51:20.983Z,99.66
2023-01-02T10:52:21.018Z,99.61
2023-01-02T10:53:20.936Z,99.51
2023-01-02T10:54:20.932Z,99.41
2023-01-02T10:55:20.904Z,99.41
2023-01-02T10:56:20.896Z,99.41
2023-01-02T10:57:20.905Z,99.41
2023-01-02T10:58:20.917Z,99.30
2023-01-02T10:59:20.858Z,99.20
2023-01-02T11:00:27.552Z,99.20
2023-01-02T11:01:21.978Z,99.30
2023-01-02T11:02:20.894Z,99.30
2023-01-02T11:03:20.843Z,99.30
2023-01-02T11:04:20.806Z,99.26
2023-01-02T11:05:20.806Z,99.36
2023-01-02T11:06:31.127Z,99.36
2023-01-02T11:07:21.808Z,99.46
2023-01-02T11:08:20.768Z,99.46
2023-01-02T11:09:20.741Z,99.56
2023-01-02T11:10:20.741Z,99.46
2023-01-02T11:11:20.732Z,99.46
2023-01-02T11:12:26.961Z,99.46
2023-01-02T11:13:21.797Z,99.46
2023-01-02T11:14:20.722Z,99.46
2023-01-02T11:15:20.689Z,99.46
2023-01-02T11:16:20.714Z,99.56
2023-01-02T11:17:20.662Z,99.56
2023-01-02T11:18:20.655Z,99.56
2023-01-02T11:19:27.410Z,99.56
2023-01-02T11:20:21.643Z,99.66
2023-01-02T11:21:20.612Z,99.66
2023-01-02T11:22:20.652Z,99.66
2023-01-02T11:23:20.587Z,99.66
2023-01-02T11:24:20.625Z,99.56
2023-01-02T11:25:20.598Z,99.46
2023-01-02T11:26:20.573Z,99.36
2023-01-02T11:27:20.555Z,99.26
2023-01-02T11:28:20.557Z,99.05
2023-01-02T11:29:20.535Z,98.95
2023-01-02T11:30:20.555Z,98.85
2023-01-02T11:31:20.550Z,98.85
2023-01-02T11:32:20.517Z,98.85
2023-01-02T11:33:20.513Z,98.85
2023-01-02T11:34:20.474Z,98.85
2023-01-02T11:35:20.477Z,98.74
2023-01-02T11:36:20.448Z,98.65
2023-01-02T11:37:20.432Z,98.33
2023-01-02T11:38:28.833Z,98.24
2023-01-02T11:39:21.441Z,98.24
2023-01-02T11:40:20.397Z,98.24
2023-01-02T11:41:20.377Z,98.24
2023-01-02T11:42:20.426Z,97.92
2023-01-02T11:43:20.360Z,97.82
2023-01-02T11:44:20.887Z,97.82
2023-01-02T11:45:20.349Z,97.72
2023-01-02T11:46:20.403Z,97.62
2023-01-02T11:47:20.326Z,97.41
2023-01-02T11:48:20.349Z,97.21
2023-01-02T11:49:20.299Z,97.11
2023-01-02T11:50:20.280Z,97.11
2023-01-02T11:51:20.276Z,96.91
2023-01-02T11:52:20.287Z,96.80
2023-01-02T11:53:20.256Z,96.59
2023-01-02T11:54:20.298Z,96.29
2023-01-02T11:55:20.222Z,96.19
2023-01-02T11:56:20.232Z,95.98
2023-01-02T11:57:20.213Z,96.08
2023-01-02T11:58:20.212Z,95.98
2023-01-02T11:59:20.194Z,95.88
2023-01-02T12:00:20.189Z,95.78
2023-01-02T12:01:20.257Z,95.47
2023-01-02T12:02:20.364Z,95.37
2023-01-02T12:03:20.271Z,95.26
2023-01-02T12:04:20.163Z,95.17
2023-01-02T12:05:20.118Z,95.17
2023-01-02T12:06:20.114Z,95.26
2023-01-02T12:07:20.091Z,95.37
2023-01-02T12:08:20.095Z,95.43
2023-01-02T12:09:20.127Z,95.43
2023-01-02T12:10:20.065Z,95.47
2023-01-02T12:11:20.047Z,95.47
2023-01-02T12:12:20.067Z,95.47
2023-01-02T12:13:20.039Z,95.26
2023-01-02T12:14:20.018Z,95.17
2023-01-02T12:15:20.040Z,95.17
2023-01-02T12:16:20.038Z,95.17
2023-01-02T12:17:19.994Z,95.17
2023-01-02T12:18:19.967Z,95.26
2023-01-02T12:19:19.985Z,94.96
2023-01-02T12:20:19.952Z,94.75
2023-01-02T12:21:19.986Z,94.65
2023-01-02T12:22:19.944Z,94.60
2023-01-02T12:23:19.907Z,94.60
2023-01-02T12:24:19.927Z,94.51
2023-01-02T12:25:19.929Z,94.55
2023-01-02T12:26:19.878Z,94.40
2023-01-02T12:27:20.911Z,94.45
2023-01-02T12:28:19.879Z,94.30
2023-01-02T12:29:46.166Z,94.40
2023-01-02T12:30:20.859Z,94.30
2023-01-02T12:31:19.890Z,94.30
2023-01-02T12:32:19.877Z,94.30
2023-01-02T12:33:19.809Z,94.20
2023-01-02T12:34:19.797Z,94.10
2023-01-02T12:35:19.783Z,93.79
2023-01-02T12:36:19.796Z,93.69
2023-01-02T12:37:20.724Z,93.69
2023-01-02T12:38:22.809Z,93.69
2023-01-02T12:39:19.732Z,93.32
2023-01-02T12:40:19.738Z,93.12
2023-01-02T12:41:19.703Z,93.01
2023-01-02T12:42:19.701Z,92.91
2023-01-02T12:43:19.709Z,92.81
2023-01-02T12:44:19.683Z,92.60
2023-01-02T12:45:19.714Z,92.50
2023-01-02T12:46:19.786Z,92.40
2023-01-02T12:47:19.634Z,92.19
2023-01-02T12:48:19.633Z,91.99
2023-01-02T12:49:19.634Z,91.99
2023-01-02T12:50:19.623Z,91.69
2023-01-02T12:51:19.641Z,91.38
2023-01-02T12:52:19.769Z,91.17